Accueil
METAR-TAF:

METAR-TAF

Aéroports :

Aéroport international de Tirana

Tirana, Albanie

latitude: 41-20N, longitude: 019-47E, altitude: 89 m

Observation

Le bulletin a été fait il y a 18 minutes, à 22:20 UTC
Vent 4 kt de sud/sud-est, variant entre est et sud
Température 12°C
Humidité 50%
Pression 1025 hPa
Visibilité 10 km ou plus
Nuages fragmentés à une hauteur de 10000 ft

METAR: LATI 062220Z 15004KT 100V180 9999 BKN100 12/02 Q1025 NOSIG

Heure: 00:38 (22:38 UTC)

Prévision

Le bulletin a été fait il y a 5 heures et 38 minutes, à 17:00 UTC
Prévision valable du 06 à 18 UTC au 07 à 18 UTC
Vent 5 kt de direction variable
Visibilité 10 km ou plus
pas de nuages en-dessous de 1500 mètres et pas de cumulonimbus.
Temporairement
du 07 à 11 UTC au 07 à 17 UTC
Vent 12 kt de nord/nord-ouest

TAF: LATI 061700Z 0618/0718 VRB05KT CAVOK TEMPO 0711/0717 34012KT

Observations et prévisions météorologiques de plus de 4000 aéroports (messages METAR et TAF).

Les stations disponibles sont représentées par des disques jaunes et rouges sur la carte.

Passer la souris dessus pour voir le nom de la station.

Cliquer dessus pour voir les observations et prévisions météorologiques.

Pour changer de carte: cliquez sur les boutons verts avec une croix noire pour zoomer, sur le bouton vert avec un tiret pour effectuer un zoom arrière, ou sur les flèches vertes pour les cartes adjacentes.


METAR-TAF: